createdAt,value
2023-05-24T00:00:12.758Z,15.53
2023-05-24T00:02:42.012Z,15.55
2023-05-24T00:05:09.973Z,15.64
2023-05-24T00:07:37.514Z,15.67
2023-05-24T00:10:04.950Z,15.63
2023-05-24T00:12:31.582Z,15.69
2023-05-24T00:14:58.455Z,15.74
2023-05-24T00:17:25.171Z,15.76
2023-05-24T00:19:52.545Z,15.78
2023-05-24T00:22:21.016Z,15.76
2023-05-24T00:24:48.429Z,15.77
2023-05-24T00:27:15.487Z,15.76
2023-05-24T00:29:42.090Z,15.85
2023-05-24T00:32:08.658Z,15.78
2023-05-24T00:34:36.873Z,15.90
2023-05-24T00:37:04.179Z,15.79
2023-05-24T00:39:30.773Z,15.75
2023-05-24T00:41:57.204Z,15.75
2023-05-24T00:44:23.684Z,15.62
2023-05-24T00:46:50.226Z,15.68
2023-05-24T00:49:16.944Z,15.71
2023-05-24T00:51:43.388Z,15.71
2023-05-24T00:54:09.797Z,15.72
2023-05-24T00:56:36.304Z,15.76
2023-05-24T00:59:02.829Z,15.83
2023-05-24T01:01:31.149Z,15.84
2023-05-24T01:03:59.554Z,15.86
2023-05-24T01:06:28.056Z,15.77
2023-05-24T01:09:06.598Z,15.90
2023-05-24T01:11:44.936Z,15.94
2023-05-24T01:14:26.495Z,15.93
2023-05-24T01:17:27.577Z,16.03
2023-05-24T01:20:06.670Z,16.00
2023-05-24T01:22:39.728Z,16.01
2023-05-24T01:25:18.152Z,16.07
2023-05-24T01:27:44.773Z,15.88
2023-05-24T01:30:12.112Z,15.83
2023-05-24T01:32:38.891Z,15.95
2023-05-24T01:35:06.134Z,15.90
2023-05-24T01:37:32.548Z,15.88
2023-05-24T01:40:00.061Z,15.93
2023-05-24T01:42:32.963Z,15.92
2023-05-24T01:45:06.675Z,15.83
2023-05-24T01:47:51.951Z,15.93
2023-05-24T01:50:38.950Z,15.95
2023-05-24T01:53:09.448Z,15.92
2023-05-24T01:55:36.941Z,16.04
2023-05-24T01:58:04.833Z,16.00
2023-05-24T02:00:31.888Z,16.00
2023-05-24T02:02:58.638Z,16.06
2023-05-24T02:05:25.196Z,16.02
2023-05-24T02:07:51.626Z,15.81
2023-05-24T02:10:18.067Z,15.73
2023-05-24T02:12:44.813Z,15.55
2023-05-24T02:15:11.512Z,15.61
2023-05-24T02:17:37.981Z,15.63
2023-05-24T02:20:04.931Z,15.59
2023-05-24T02:22:31.445Z,15.59
2023-05-24T02:24:57.908Z,15.81
2023-05-24T02:27:24.336Z,16.00
2023-05-24T02:29:50.751Z,15.94
2023-05-24T02:32:17.294Z,15.99
2023-05-24T02:34:44.222Z,15.92
2023-05-24T02:37:14.854Z,15.80
2023-05-24T02:39:42.116Z,15.83
2023-05-24T02:42:09.025Z,15.88
2023-05-24T02:44:35.565Z,15.97
2023-05-24T02:49:43.275Z,16.28
2023-05-24T02:52:09.857Z,15.96
2023-05-24T02:54:37.033Z,15.89
2023-05-24T02:57:06.551Z,15.92
2023-05-24T02:59:33.619Z,15.79
2023-05-24T03:02:00.550Z,15.76
2023-05-24T03:04:27.125Z,15.92
2023-05-24T03:06:54.562Z,15.89
2023-05-24T03:09:21.440Z,16.01
2023-05-24T03:11:48.716Z,16.00
2023-05-24T03:14:17.313Z,16.02
2023-05-24T03:16:43.790Z,15.96
2023-05-24T03:19:10.448Z,15.99
2023-05-24T03:21:37.578Z,15.95
2023-05-24T03:24:04.640Z,15.90
2023-05-24T03:26:31.589Z,15.96
2023-05-24T03:28:58.047Z,16.08
2023-05-24T03:31:30.743Z,16.18
2023-05-24T03:33:57.925Z,16.01
2023-05-24T03:36:26.172Z,16.07
2023-05-24T03:38:52.962Z,15.93
2023-05-24T03:41:20.363Z,15.83
2023-05-24T03:43:46.832Z,15.86
2023-05-24T03:46:16.175Z,15.94
2023-05-24T03:48:43.744Z,15.88
2023-05-24T03:51:10.149Z,15.79
2023-05-24T03:53:36.653Z,15.84
2023-05-24T03:56:03.114Z,15.68
2023-05-24T03:58:29.540Z,15.70
2023-05-24T04:00:55.954Z,15.64
2023-05-24T04:03:22.814Z,15.51
2023-05-24T04:05:49.395Z,15.59
2023-05-24T04:08:16.394Z,15.59
2023-05-24T04:10:43.242Z,15.50
2023-05-24T04:13:11.430Z,15.43
2023-05-24T04:15:38.085Z,15.52
2023-05-24T04:18:05.280Z,15.64
2023-05-24T04:20:34.134Z,15.62
2023-05-24T04:23:00.777Z,15.69
2023-05-24T04:25:27.591Z,15.64
2023-05-24T04:27:54.414Z,15.68
2023-05-24T04:30:21.519Z,15.59
2023-05-24T04:32:48.520Z,15.65
2023-05-24T04:35:16.872Z,15.57
2023-05-24T04:37:44.547Z,15.47
2023-05-24T04:40:11.756Z,15.47
2023-05-24T04:42:38.438Z,15.56
2023-05-24T04:45:05.602Z,15.52
2023-05-24T04:47:32.167Z,15.57
2023-05-24T04:49:58.966Z,15.59
2023-05-24T04:52:25.657Z,15.61
2023-05-24T04:54:52.816Z,15.53
2023-05-24T04:57:19.305Z,15.31
2023-05-24T04:59:45.838Z,15.37
2023-05-24T05:02:12.415Z,15.11
2023-05-24T05:04:38.884Z,15.22
2023-05-24T05:07:05.667Z,15.35
2023-05-24T05:09:32.095Z,15.51
2023-05-24T05:11:58.660Z,15.58
2023-05-24T05:14:25.429Z,15.44
2023-05-24T05:16:51.968Z,15.42
2023-05-24T05:19:18.813Z,15.45
2023-05-24T05:21:45.245Z,15.65
2023-05-24T05:24:11.719Z,15.64
2023-05-24T05:26:38.199Z,15.82
2023-05-24T05:29:04.610Z,15.70
2023-05-24T05:31:31.283Z,15.63
2023-05-24T05:33:57.775Z,15.79
2023-05-24T05:36:24.199Z,15.91
2023-05-24T05:38:50.708Z,15.72
2023-05-24T05:41:17.650Z,15.67
2023-05-24T05:43:44.060Z,15.57
2023-05-24T05:46:11.269Z,15.48
2023-05-24T05:48:37.895Z,15.50
2023-05-24T05:51:04.319Z,15.50
2023-05-24T05:53:33.907Z,15.43
2023-05-24T05:56:00.301Z,15.59
2023-05-24T05:58:26.757Z,15.57
2023-05-24T06:00:53.135Z,15.64
2023-05-24T06:03:19.686Z,15.76
2023-05-24T06:05:46.424Z,15.71
2023-05-24T06:08:12.821Z,15.72
2023-05-24T06:10:39.231Z,15.68
2023-05-24T06:13:05.692Z,15.71
2023-05-24T06:15:33.323Z,15.57
2023-05-24T06:18:01.293Z,15.64
2023-05-24T06:20:27.764Z,15.65
2023-05-24T06:22:55.335Z,15.63
2023-05-24T06:25:24.069Z,15.63
2023-05-24T06:27:51.658Z,15.43
2023-05-24T06:30:18.557Z,15.69
2023-05-24T06:32:45.100Z,16.03
2023-05-24T06:35:11.614Z,16.23
2023-05-24T06:37:38.630Z,16.21
2023-05-24T06:40:11.546Z,16.36
2023-05-24T06:42:39.113Z,16.27
2023-05-24T06:45:06.032Z,16.08
2023-05-24T06:47:32.615Z,15.91
2023-05-24T06:49:59.202Z,15.89
2023-05-24T06:52:25.873Z,15.80
2023-05-24T06:54:52.672Z,15.78
2023-05-24T06:57:19.068Z,16.16
2023-05-24T06:59:45.528Z,16.11
2023-05-24T07:02:11.962Z,16.16
2023-05-24T07:04:41.269Z,15.69
2023-05-24T07:07:09.054Z,15.95
2023-05-24T07:09:35.788Z,15.86
2023-05-24T07:12:02.545Z,15.90
2023-05-24T07:14:28.991Z,15.88
2023-05-24T07:16:57.496Z,16.15
2023-05-24T07:19:28.959Z,16.57
2023-05-24T07:21:56.722Z,16.23
2023-05-24T07:24:24.093Z,16.21
2023-05-24T07:26:51.676Z,16.39
2023-05-24T07:29:18.123Z,16.59
2023-05-24T07:31:44.553Z,16.31
2023-05-24T07:34:11.145Z,16.35
